sensor_id;sensor_type;location;lat;lon;timestamp;P1;durP1;ratioP1;P2;durP2;ratioP2
39346;SDS011;26262;49.836;6.632;2023-05-07T00:00:36;4.07;;;3.17;;
39346;SDS011;26262;49.836;6.632;2023-05-07T00:03:02;3.35;;;2.55;;
39346;SDS011;26262;49.836;6.632;2023-05-07T00:05:28;4.22;;;2.65;;
39346;SDS011;26262;49.836;6.632;2023-05-07T00:07:53;3.05;;;2.70;;
39346;SDS011;26262;49.836;6.632;2023-05-07T00:10:19;3.50;;;2.53;;
39346;SDS011;26262;49.836;6.632;2023-05-07T00:12:44;4.95;;;2.53;;
39346;SDS011;26262;49.836;6.632;2023-05-07T00:15:10;3.80;;;2.30;;
39346;SDS011;26262;49.836;6.632;2023-05-07T00:17:36;4.75;;;2.20;;
39346;SDS011;26262;49.836;6.632;2023-05-07T00:20:02;3.67;;;2.13;;
39346;SDS011;26262;49.836;6.632;2023-05-07T00:22:29;3.00;;;2.30;;
39346;SDS011;26262;49.836;6.632;2023-05-07T00:24:56;3.45;;;2.28;;
39346;SDS011;26262;49.836;6.632;2023-05-07T00:27:21;3.45;;;2.50;;
39346;SDS011;26262;49.836;6.632;2023-05-07T00:29:47;4.65;;;2.90;;
39346;SDS011;26262;49.836;6.632;2023-05-07T00:32:13;3.38;;;2.72;;
39346;SDS011;26262;49.836;6.632;2023-05-07T00:34:39;2.67;;;2.45;;
39346;SDS011;26262;49.836;6.632;2023-05-07T00:37:05;5.82;;;2.88;;
39346;SDS011;26262;49.836;6.632;2023-05-07T00:39:32;3.15;;;2.83;;
39346;SDS011;26262;49.836;6.632;2023-05-07T00:41:58;2.75;;;2.30;;
39346;SDS011;26262;49.836;6.632;2023-05-07T00:44:25;3.73;;;2.80;;
39346;SDS011;26262;49.836;6.632;2023-05-07T00:46:51;4.22;;;2.83;;
39346;SDS011;26262;49.836;6.632;2023-05-07T00:49:17;3.72;;;2.30;;
39346;SDS011;26262;49.836;6.632;2023-05-07T00:51:43;3.28;;;2.22;;
39346;SDS011;26262;49.836;6.632;2023-05-07T00:54:10;2.78;;;2.13;;
39346;SDS011;26262;49.836;6.632;2023-05-07T00:56:36;2.25;;;2.05;;
39346;SDS011;26262;49.836;6.632;2023-05-07T01:01:30;2.35;;;1.95;;
39346;SDS011;26262;49.836;6.632;2023-05-07T01:03:56;4.95;;;2.10;;
39346;SDS011;26262;49.836;6.632;2023-05-07T01:06:22;2.25;;;1.80;;
39346;SDS011;26262;49.836;6.632;2023-05-07T01:08:50;3.20;;;2.25;;
39346;SDS011;26262;49.836;6.632;2023-05-07T01:11:17;3.33;;;2.10;;
39346;SDS011;26262;49.836;6.632;2023-05-07T01:13:45;2.28;;;1.95;;
39346;SDS011;26262;49.836;6.632;2023-05-07T01:16:11;3.55;;;1.77;;
39346;SDS011;26262;49.836;6.632;2023-05-07T01:18:37;2.50;;;2.17;;
39346;SDS011;26262;49.836;6.632;2023-05-07T01:21:04;3.80;;;2.00;;
39346;SDS011;26262;49.836;6.632;2023-05-07T01:23:30;2.60;;;1.80;;
39346;SDS011;26262;49.836;6.632;2023-05-07T01:25:56;2.45;;;2.13;;
39346;SDS011;26262;49.836;6.632;2023-05-07T01:28:21;3.33;;;2.00;;
39346;SDS011;26262;49.836;6.632;2023-05-07T01:30:48;3.53;;;2.08;;
39346;SDS011;26262;49.836;6.632;2023-05-07T01:33:19;2.70;;;1.92;;
39346;SDS011;26262;49.836;6.632;2023-05-07T01:35:50;2.47;;;1.80;;
39346;SDS011;26262;49.836;6.632;2023-05-07T01:38:18;2.50;;;1.75;;
39346;SDS011;26262;49.836;6.632;2023-05-07T01:40:44;3.72;;;1.65;;
39346;SDS011;26262;49.836;6.632;2023-05-07T01:43:10;1.92;;;1.42;;
39346;SDS011;26262;49.836;6.632;2023-05-07T01:45:36;3.28;;;1.83;;
39346;SDS011;26262;49.836;6.632;2023-05-07T01:48:02;2.70;;;1.35;;
39346;SDS011;26262;49.836;6.632;2023-05-07T01:50:28;2.17;;;1.80;;
39346;SDS011;26262;49.836;6.632;2023-05-07T01:52:55;2.15;;;1.35;;
39346;SDS011;26262;49.836;6.632;2023-05-07T01:55:21;2.35;;;1.70;;
39346;SDS011;26262;49.836;6.632;2023-05-07T01:57:46;1.75;;;1.42;;
39346;SDS011;26262;49.836;6.632;2023-05-07T02:00:12;3.25;;;1.60;;
39346;SDS011;26262;49.836;6.632;2023-05-07T02:02:38;1.67;;;1.40;;
39346;SDS011;26262;49.836;6.632;2023-05-07T02:05:04;2.22;;;1.50;;
39346;SDS011;26262;49.836;6.632;2023-05-07T02:07:30;2.28;;;1.67;;
39346;SDS011;26262;49.836;6.632;2023-05-07T02:09:55;5.38;;;1.70;;
39346;SDS011;26262;49.836;6.632;2023-05-07T02:12:21;2.40;;;1.60;;
39346;SDS011;26262;49.836;6.632;2023-05-07T02:14:47;2.10;;;1.60;;
39346;SDS011;26262;49.836;6.632;2023-05-07T02:17:13;2.42;;;1.52;;
39346;SDS011;26262;49.836;6.632;2023-05-07T02:19:38;1.77;;;1.45;;
39346;SDS011;26262;49.836;6.632;2023-05-07T02:22:04;2.70;;;1.40;;
39346;SDS011;26262;49.836;6.632;2023-05-07T02:24:29;4.80;;;1.95;;
39346;SDS011;26262;49.836;6.632;2023-05-07T02:26:55;1.40;;;1.30;;
39346;SDS011;26262;49.836;6.632;2023-05-07T02:29:20;1.63;;;1.40;;
39346;SDS011;26262;49.836;6.632;2023-05-07T02:31:46;4.10;;;1.20;;
39346;SDS011;26262;49.836;6.632;2023-05-07T02:34:15;2.78;;;1.40;;
39346;SDS011;26262;49.836;6.632;2023-05-07T02:36:41;3.33;;;1.35;;
39346;SDS011;26262;49.836;6.632;2023-05-07T02:39:07;3.25;;;1.50;;
39346;SDS011;26262;49.836;6.632;2023-05-07T02:41:32;1.20;;;1.05;;
39346;SDS011;26262;49.836;6.632;2023-05-07T02:43:58;2.53;;;1.20;;
39346;SDS011;26262;49.836;6.632;2023-05-07T02:46:23;1.75;;;1.30;;
39346;SDS011;26262;49.836;6.632;2023-05-07T02:48:49;2.67;;;1.40;;
39346;SDS011;26262;49.836;6.632;2023-05-07T02:51:16;3.60;;;1.70;;
39346;SDS011;26262;49.836;6.632;2023-05-07T02:53:45;3.03;;;1.50;;
39346;SDS011;26262;49.836;6.632;2023-05-07T02:56:10;4.60;;;1.40;;
39346;SDS011;26262;49.836;6.632;2023-05-07T02:58:36;1.80;;;1.35;;
39346;SDS011;26262;49.836;6.632;2023-05-07T03:01:04;1.77;;;1.40;;
39346;SDS011;26262;49.836;6.632;2023-05-07T03:03:30;2.85;;;1.60;;
39346;SDS011;26262;49.836;6.632;2023-05-07T03:05:56;1.92;;;1.17;;
39346;SDS011;26262;49.836;6.632;2023-05-07T03:08:21;2.30;;;1.52;;
39346;SDS011;26262;49.836;6.632;2023-05-07T03:10:47;4.18;;;1.63;;
39346;SDS011;26262;49.836;6.632;2023-05-07T03:13:13;2.40;;;1.48;;
39346;SDS011;26262;49.836;6.632;2023-05-07T03:15:38;1.80;;;1.30;;
39346;SDS011;26262;49.836;6.632;2023-05-07T03:18:04;3.97;;;1.50;;
39346;SDS011;26262;49.836;6.632;2023-05-07T03:20:30;3.38;;;1.77;;
39346;SDS011;26262;49.836;6.632;2023-05-07T03:22:56;2.30;;;1.40;;
39346;SDS011;26262;49.836;6.632;2023-05-07T03:25:21;2.45;;;1.60;;
39346;SDS011;26262;49.836;6.632;2023-05-07T03:27:47;2.60;;;1.63;;
39346;SDS011;26262;49.836;6.632;2023-05-07T03:30:12;1.52;;;1.42;;
39346;SDS011;26262;49.836;6.632;2023-05-07T03:32:38;3.40;;;1.58;;
39346;SDS011;26262;49.836;6.632;2023-05-07T03:35:04;2.80;;;1.50;;
39346;SDS011;26262;49.836;6.632;2023-05-07T03:37:29;3.17;;;1.35;;
39346;SDS011;26262;49.836;6.632;2023-05-07T03:39:55;2.60;;;1.60;;
39346;SDS011;26262;49.836;6.632;2023-05-07T03:42:21;2.55;;;1.42;;
39346;SDS011;26262;49.836;6.632;2023-05-07T03:44:46;3.17;;;1.55;;
39346;SDS011;26262;49.836;6.632;2023-05-07T03:47:12;2.45;;;1.40;;
39346;SDS011;26262;49.836;6.632;2023-05-07T03:49:38;1.73;;;1.27;;
39346;SDS011;26262;49.836;6.632;2023-05-07T03:52:04;1.73;;;1.23;;
39346;SDS011;26262;49.836;6.632;2023-05-07T03:54:30;1.50;;;1.40;;
39346;SDS011;26262;49.836;6.632;2023-05-07T03:56:56;1.48;;;1.38;;
39346;SDS011;26262;49.836;6.632;2023-05-07T03:59:22;3.25;;;1.48;;
39346;SDS011;26262;49.836;6.632;2023-05-07T04:01:47;3.60;;;1.48;;
39346;SDS011;26262;49.836;6.632;2023-05-07T04:04:13;1.65;;;1.55;;
39346;SDS011;26262;49.836;6.632;2023-05-07T04:06:39;3.05;;;1.63;;
39346;SDS011;26262;49.836;6.632;2023-05-07T04:09:06;2.35;;;1.20;;
39346;SDS011;26262;49.836;6.632;2023-05-07T04:11:31;1.60;;;1.50;;
39346;SDS011;26262;49.836;6.632;2023-05-07T04:13:57;3.35;;;1.70;;
39346;SDS011;26262;49.836;6.632;2023-05-07T04:16:22;3.20;;;1.88;;
39346;SDS011;26262;49.836;6.632;2023-05-07T04:18:48;2.33;;;1.50;;
39346;SDS011;26262;49.836;6.632;2023-05-07T04:21:17;2.63;;;1.55;;
39346;SDS011;26262;49.836;6.632;2023-05-07T04:23:43;2.38;;;1.50;;
39346;SDS011;26262;49.836;6.632;2023-05-07T04:26:10;4.72;;;1.95;;
39346;SDS011;26262;49.836;6.632;2023-05-07T04:28:36;1.80;;;1.40;;
39346;SDS011;26262;49.836;6.632;2023-05-07T04:31:02;2.95;;;1.50;;
39346;SDS011;26262;49.836;6.632;2023-05-07T04:33:27;2.10;;;1.60;;
39346;SDS011;26262;49.836;6.632;2023-05-07T04:35:53;3.15;;;1.35;;
39346;SDS011;26262;49.836;6.632;2023-05-07T04:38:18;2.00;;;1.45;;
39346;SDS011;26262;49.836;6.632;2023-05-07T04:40:44;3.60;;;1.52;;
39346;SDS011;26262;49.836;6.632;2023-05-07T04:43:11;3.17;;;1.80;;
39346;SDS011;26262;49.836;6.632;2023-05-07T04:45:38;3.50;;;1.83;;
39346;SDS011;26262;49.836;6.632;2023-05-07T04:48:06;3.47;;;1.70;;
39346;SDS011;26262;49.836;6.632;2023-05-07T04:50:32;2.45;;;1.40;;
39346;SDS011;26262;49.836;6.632;2023-05-07T04:52:57;4.45;;;1.55;;
39346;SDS011;26262;49.836;6.632;2023-05-07T04:55:23;2.53;;;1.50;;
39346;SDS011;26262;49.836;6.632;2023-05-07T04:57:49;1.45;;;1.27;;
39346;SDS011;26262;49.836;6.632;2023-05-07T05:00:15;1.95;;;1.67;;
39346;SDS011;26262;49.836;6.632;2023-05-07T05:02:41;2.22;;;1.30;;
39346;SDS011;26262;49.836;6.632;2023-05-07T05:05:07;2.42;;;1.80;;
39346;SDS011;26262;49.836;6.632;2023-05-07T05:07:33;2.40;;;1.60;;
39346;SDS011;26262;49.836;6.632;2023-05-07T05:09:58;2.40;;;1.80;;
39346;SDS011;26262;49.836;6.632;2023-05-07T05:12:24;2.20;;;1.30;;
39346;SDS011;26262;49.836;6.632;2023-05-07T05:14:50;3.05;;;2.13;;
39346;SDS011;26262;49.836;6.632;2023-05-07T05:17:15;2.78;;;1.83;;
39346;SDS011;26262;49.836;6.632;2023-05-07T05:19:41;6.05;;;2.63;;
39346;SDS011;26262;49.836;6.632;2023-05-07T05:22:06;4.13;;;1.90;;
39346;SDS011;26262;49.836;6.632;2023-05-07T05:24:32;2.58;;;1.73;;
39346;SDS011;26262;49.836;6.632;2023-05-07T05:26:57;4.43;;;1.70;;
39346;SDS011;26262;49.836;6.632;2023-05-07T05:29:26;2.75;;;1.80;;
39346;SDS011;26262;49.836;6.632;2023-05-07T05:31:51;3.60;;;1.80;;
39346;SDS011;26262;49.836;6.632;2023-05-07T05:34:17;3.08;;;2.22;;
39346;SDS011;26262;49.836;6.632;2023-05-07T05:36:44;3.03;;;2.05;;
39346;SDS011;26262;49.836;6.632;2023-05-07T05:39:10;4.25;;;2.20;;
39346;SDS011;26262;49.836;6.632;2023-05-07T05:41:35;2.30;;;1.85;;
39346;SDS011;26262;49.836;6.632;2023-05-07T05:44:01;3.50;;;2.28;;
39346;SDS011;26262;49.836;6.632;2023-05-07T05:46:26;3.53;;;2.03;;
39346;SDS011;26262;49.836;6.632;2023-05-07T05:48:52;2.55;;;2.10;;
39346;SDS011;26262;49.836;6.632;2023-05-07T05:51:17;3.38;;;2.35;;
39346;SDS011;26262;49.836;6.632;2023-05-07T05:53:43;2.95;;;2.08;;
39346;SDS011;26262;49.836;6.632;2023-05-07T05:56:09;4.85;;;2.15;;
39346;SDS011;26262;49.836;6.632;2023-05-07T05:58:35;2.25;;;1.83;;
39346;SDS011;26262;49.836;6.632;2023-05-07T06:01:00;4.45;;;2.50;;
39346;SDS011;26262;49.836;6.632;2023-05-07T06:03:27;3.03;;;1.80;;
39346;SDS011;26262;49.836;6.632;2023-05-07T06:05:53;3.70;;;1.77;;
39346;SDS011;26262;49.836;6.632;2023-05-07T06:08:18;5.55;;;2.60;;
39346;SDS011;26262;49.836;6.632;2023-05-07T06:10:44;2.70;;;2.15;;
39346;SDS011;26262;49.836;6.632;2023-05-07T06:13:10;3.65;;;2.00;;
39346;SDS011;26262;49.836;6.632;2023-05-07T06:15:35;8.18;;;2.45;;
39346;SDS011;26262;49.836;6.632;2023-05-07T06:18:01;2.88;;;2.13;;
39346;SDS011;26262;49.836;6.632;2023-05-07T06:20:27;3.58;;;2.38;;
39346;SDS011;26262;49.836;6.632;2023-05-07T06:22:52;5.70;;;3.40;;
39346;SDS011;26262;49.836;6.632;2023-05-07T06:25:18;4.10;;;2.35;;
39346;SDS011;26262;49.836;6.632;2023-05-07T06:27:43;3.35;;;1.90;;
39346;SDS011;26262;49.836;6.632;2023-05-07T06:30:09;3.00;;;2.13;;
39346;SDS011;26262;49.836;6.632;2023-05-07T06:32:35;3.65;;;2.58;;
39346;SDS011;26262;49.836;6.632;2023-05-07T06:35:01;5.18;;;1.90;;
39346;SDS011;26262;49.836;6.632;2023-05-07T06:37:27;3.50;;;1.88;;
39346;SDS011;26262;49.836;6.632;2023-05-07T06:39:52;2.90;;;2.53;;
39346;SDS011;26262;49.836;6.632;2023-05-07T06:42:18;2.90;;;2.25;;
39346;SDS011;26262;49.836;6.632;2023-05-07T06:44:44;3.55;;;2.15;;
39346;SDS011;26262;49.836;6.632;2023-05-07T06:47:09;4.38;;;2.00;;
39346;SDS011;26262;49.836;6.632;2023-05-07T06:49:35;4.85;;;1.92;;
39346;SDS011;26262;49.836;6.632;2023-05-07T06:52:01;4.18;;;2.22;;
39346;SDS011;26262;49.836;6.632;2023-05-07T06:54:26;4.53;;;2.10;;
39346;SDS011;26262;49.836;6.632;2023-05-07T06:56:52;2.58;;;2.00;;
39346;SDS011;26262;49.836;6.632;2023-05-07T06:59:18;2.75;;;2.10;;
39346;SDS011;26262;49.836;6.632;2023-05-07T07:01:44;3.30;;;1.70;;
39346;SDS011;26262;49.836;6.632;2023-05-07T07:04:09;3.95;;;2.00;;
39346;SDS011;26262;49.836;6.632;2023-05-07T07:06:35;3.45;;;1.80;;
39346;SDS011;26262;49.836;6.632;2023-05-07T07:09:00;2.15;;;1.60;;
39346;SDS011;26262;49.836;6.632;2023-05-07T07:11:26;3.58;;;1.60;;
39346;SDS011;26262;49.836;6.632;2023-05-07T07:13:52;2.85;;;1.60;;
39346;SDS011;26262;49.836;6.632;2023-05-07T07:16:19;2.10;;;1.90;;
39346;SDS011;26262;49.836;6.632;2023-05-07T07:18:45;2.10;;;1.25;;
39346;SDS011;26262;49.836;6.632;2023-05-07T07:21:11;3.33;;;1.85;;
39346;SDS011;26262;49.836;6.632;2023-05-07T07:23:36;1.73;;;1.42;;
39346;SDS011;26262;49.836;6.632;2023-05-07T07:26:02;2.40;;;1.60;;
39346;SDS011;26262;49.836;6.632;2023-05-07T07:28:27;12.68;;;6.45;;
39346;SDS011;26262;49.836;6.632;2023-05-07T07:30:53;2.05;;;1.35;;
39346;SDS011;26262;49.836;6.632;2023-05-07T07:33:18;3.95;;;1.42;;
39346;SDS011;26262;49.836;6.632;2023-05-07T07:35:44;2.60;;;1.40;;
39346;SDS011;26262;49.836;6.632;2023-05-07T07:38:10;2.55;;;1.70;;
39346;SDS011;26262;49.836;6.632;2023-05-07T07:40:35;2.38;;;1.52;;
39346;SDS011;26262;49.836;6.632;2023-05-07T07:43:01;2.25;;;1.50;;
39346;SDS011;26262;49.836;6.632;2023-05-07T07:45:27;4.60;;;1.70;;
39346;SDS011;26262;49.836;6.632;2023-05-07T07:47:52;2.88;;;1.50;;
39346;SDS011;26262;49.836;6.632;2023-05-07T07:50:18;5.00;;;1.70;;
39346;SDS011;26262;49.836;6.632;2023-05-07T07:52:44;1.98;;;1.48;;
39346;SDS011;26262;49.836;6.632;2023-05-07T07:55:09;2.55;;;1.67;;
39346;SDS011;26262;49.836;6.632;2023-05-07T07:57:35;2.40;;;1.33;;
39346;SDS011;26262;49.836;6.632;2023-05-07T08:00:01;3.47;;;2.00;;
39346;SDS011;26262;49.836;6.632;2023-05-07T08:02:27;2.55;;;1.70;;
39346;SDS011;26262;49.836;6.632;2023-05-07T08:04:52;3.30;;;1.63;;
39346;SDS011;26262;49.836;6.632;2023-05-07T08:07:18;3.13;;;1.52;;
39346;SDS011;26262;49.836;6.632;2023-05-07T08:09:45;1.88;;;1.50;;
39346;SDS011;26262;49.836;6.632;2023-05-07T08:12:11;1.90;;;1.33;;
39346;SDS011;26262;49.836;6.632;2023-05-07T08:14:37;1.90;;;1.33;;
39346;SDS011;26262;49.836;6.632;2023-05-07T08:17:02;2.72;;;1.50;;
39346;SDS011;26262;49.836;6.632;2023-05-07T08:19:28;3.25;;;1.80;;
39346;SDS011;26262;49.836;6.632;2023-05-07T08:21:53;4.40;;;1.45;;
39346;SDS011;26262;49.836;6.632;2023-05-07T08:26:47;5.38;;;1.40;;
39346;SDS011;26262;49.836;6.632;2023-05-07T08:29:14;1.90;;;1.27;;
39346;SDS011;26262;49.836;6.632;2023-05-07T08:31:40;2.67;;;1.40;;
39346;SDS011;26262;49.836;6.632;2023-05-07T08:34:05;1.88;;;1.30;;
39346;SDS011;26262;49.836;6.632;2023-05-07T08:36:31;1.95;;;1.40;;
39346;SDS011;26262;49.836;6.632;2023-05-07T08:38:57;2.25;;;1.08;;
39346;SDS011;26262;49.836;6.632;2023-05-07T08:41:22;1.92;;;1.20;;
39346;SDS011;26262;49.836;6.632;2023-05-07T08:43:49;1.70;;;1.10;;
39346;SDS011;26262;49.836;6.632;2023-05-07T08:46:16;2.80;;;1.30;;
39346;SDS011;26262;49.836;6.632;2023-05-07T08:48:49;1.73;;;1.25;;
39346;SDS011;26262;49.836;6.632;2023-05-07T08:51:16;1.35;;;1.00;;
39346;SDS011;26262;49.836;6.632;2023-05-07T08:53:43;1.38;;;1.25;;
39346;SDS011;26262;49.836;6.632;2023-05-07T08:56:08;1.50;;;1.20;;
39346;SDS011;26262;49.836;6.632;2023-05-07T08:58:34;3.42;;;1.48;;
39346;SDS011;26262;49.836;6.632;2023-05-07T09:01:05;1.30;;;1.17;;
39346;SDS011;26262;49.836;6.632;2023-05-07T09:03:33;2.40;;;1.17;;
39346;SDS011;26262;49.836;6.632;2023-05-07T09:05:59;2.35;;;1.20;;
39346;SDS011;26262;49.836;6.632;2023-05-07T09:08:26;2.58;;;1.20;;
39346;SDS011;26262;49.836;6.632;2023-05-07T09:10:52;1.45;;;1.20;;
39346;SDS011;26262;49.836;6.632;2023-05-07T09:13:18;2.47;;;1.40;;
39346;SDS011;26262;49.836;6.632;2023-05-07T09:15:44;2.08;;;1.35;;
39346;SDS011;26262;49.836;6.632;2023-05-07T09:18:09;2.72;;;1.30;;
39346;SDS011;26262;49.836;6.632;2023-05-07T09:20:39;2.40;;;1.27;;
39346;SDS011;26262;49.836;6.632;2023-05-07T09:23:06;2.50;;;1.50;;
39346;SDS011;26262;49.836;6.632;2023-05-07T09:25:32;1.90;;;1.33;;
39346;SDS011;26262;49.836;6.632;2023-05-07T09:27:59;2.30;;;1.45;;
39346;SDS011;26262;49.836;6.632;2023-05-07T09:30:32;2.85;;;1.50;;
39346;SDS011;26262;49.836;6.632;2023-05-07T09:32:59;2.28;;;1.30;;
39346;SDS011;26262;49.836;6.632;2023-05-07T09:35:26;2.38;;;1.30;;
39346;SDS011;26262;49.836;6.632;2023-05-07T09:37:58;2.80;;;1.40;;
39346;SDS011;26262;49.836;6.632;2023-05-07T09:40:28;2.33;;;1.35;;
39346;SDS011;26262;49.836;6.632;2023-05-07T09:42:54;2.22;;;1.05;;
39346;SDS011;26262;49.836;6.632;2023-05-07T09:45:26;1.10;;;1.00;;
39346;SDS011;26262;49.836;6.632;2023-05-07T09:47:54;1.13;;;0.93;;
39346;SDS011;26262;49.836;6.632;2023-05-07T09:50:24;1.90;;;0.93;;
39346;SDS011;26262;49.836;6.632;2023-05-07T09:52:54;2.38;;;1.13;;
39346;SDS011;26262;49.836;6.632;2023-05-07T09:55:20;1.83;;;1.02;;
39346;SDS011;26262;49.836;6.632;2023-05-07T09:57:48;1.95;;;1.00;;
39346;SDS011;26262;49.836;6.632;2023-05-07T10:00:17;1.27;;;0.95;;
39346;SDS011;26262;49.836;6.632;2023-05-07T10:02:45;1.17;;;0.90;;
39346;SDS011;26262;49.836;6.632;2023-05-07T10:05:17;1.15;;;0.80;;
39346;SDS011;26262;49.836;6.632;2023-05-07T10:07:46;1.63;;;1.13;;
39346;SDS011;26262;49.836;6.632;2023-05-07T10:10:14;1.88;;;1.10;;
39346;SDS011;26262;49.836;6.632;2023-05-07T10:12:41;1.00;;;0.82;;
39346;SDS011;26262;49.836;6.632;2023-05-07T10:15:07;1.23;;;0.90;;
39346;SDS011;26262;49.836;6.632;2023-05-07T10:17:37;2.00;;;1.02;;
39346;SDS011;26262;49.836;6.632;2023-05-07T10:20:04;3.60;;;0.90;;
39346;SDS011;26262;49.836;6.632;2023-05-07T10:22:48;4.47;;;1.25;;
39346;SDS011;26262;49.836;6.632;2023-05-07T10:25:17;1.00;;;0.90;;
39346;SDS011;26262;49.836;6.632;2023-05-07T10:27:46;2.30;;;1.42;;
39346;SDS011;26262;49.836;6.632;2023-05-07T10:30:18;1.65;;;0.93;;
39346;SDS011;26262;49.836;6.632;2023-05-07T10:32:47;3.05;;;1.10;;
39346;SDS011;26262;49.836;6.632;2023-05-07T10:35:18;2.08;;;1.02;;
39346;SDS011;26262;49.836;6.632;2023-05-07T10:37:46;2.03;;;1.23;;
39346;SDS011;26262;49.836;6.632;2023-05-07T10:40:13;1.80;;;1.00;;
39346;SDS011;26262;49.836;6.632;2023-05-07T10:42:38;1.83;;;1.10;;
39346;SDS011;26262;49.836;6.632;2023-05-07T10:45:17;2.45;;;1.08;;
39346;SDS011;26262;49.836;6.632;2023-05-07T10:50:32;2.00;;;1.00;;
39346;SDS011;26262;49.836;6.632;2023-05-07T10:55:41;2.95;;;1.20;;
39346;SDS011;26262;49.836;6.632;2023-05-07T11:00:55;3.28;;;1.63;;
39346;SDS011;26262;49.836;6.632;2023-05-07T11:03:22;2.05;;;1.20;;
39346;SDS011;26262;49.836;6.632;2023-05-07T11:05:48;8.90;;;1.63;;
39346;SDS011;26262;49.836;6.632;2023-05-07T11:11:18;3.10;;;1.00;;
39346;SDS011;26262;49.836;6.632;2023-05-07T11:13:47;2.20;;;1.13;;
39346;SDS011;26262;49.836;6.632;2023-05-07T11:16:18;1.52;;;0.90;;
39346;SDS011;26262;49.836;6.632;2023-05-07T11:21:31;1.35;;;0.90;;
39346;SDS011;26262;49.836;6.632;2023-05-07T11:24:02;1.25;;;0.90;;
39346;SDS011;26262;49.836;6.632;2023-05-07T11:26:29;3.25;;;1.10;;
39346;SDS011;26262;49.836;6.632;2023-05-07T11:28:56;1.42;;;1.00;;
39346;SDS011;26262;49.836;6.632;2023-05-07T11:31:22;2.75;;;1.00;;
39346;SDS011;26262;49.836;6.632;2023-05-07T11:33:51;1.85;;;1.00;;
39346;SDS011;26262;49.836;6.632;2023-05-07T11:36:17;1.58;;;1.00;;
39346;SDS011;26262;49.836;6.632;2023-05-07T11:38:44;1.55;;;1.10;;
39346;SDS011;26262;49.836;6.632;2023-05-07T11:41:09;1.55;;;0.80;;
39346;SDS011;26262;49.836;6.632;2023-05-07T11:43:35;4.03;;;1.00;;
39346;SDS011;26262;49.836;6.632;2023-05-07T11:46:05;1.95;;;0.90;;
39346;SDS011;26262;49.836;6.632;2023-05-07T11:48:32;1.40;;;1.00;;
39346;SDS011;26262;49.836;6.632;2023-05-07T11:53:27;3.30;;;1.13;;
39346;SDS011;26262;49.836;6.632;2023-05-07T11:55:59;2.03;;;1.30;;
39346;SDS011;26262;49.836;6.632;2023-05-07T11:58:25;2.00;;;1.10;;
39346;SDS011;26262;49.836;6.632;2023-05-07T12:00:51;2.90;;;1.20;;
39346;SDS011;26262;49.836;6.632;2023-05-07T12:03:18;4.22;;;1.10;;
39346;SDS011;26262;49.836;6.632;2023-05-07T12:05:44;1.88;;;0.98;;
39346;SDS011;26262;49.836;6.632;2023-05-07T12:08:14;2.05;;;1.00;;
39346;SDS011;26262;49.836;6.632;2023-05-07T12:10:41;2.80;;;1.45;;
39346;SDS011;26262;49.836;6.632;2023-05-07T12:13:20;2.88;;;1.38;;
39346;SDS011;26262;49.836;6.632;2023-05-07T12:15:50;2.88;;;1.40;;
39346;SDS011;26262;49.836;6.632;2023-05-07T12:18:20;1.90;;;1.13;;
39346;SDS011;26262;49.836;6.632;2023-05-07T12:20:46;2.40;;;1.30;;
39346;SDS011;26262;49.836;6.632;2023-05-07T12:23:12;2.92;;;0.93;;
39346;SDS011;26262;49.836;6.632;2023-05-07T12:25:39;1.75;;;1.00;;
39346;SDS011;26262;49.836;6.632;2023-05-07T12:28:08;1.25;;;1.00;;
39346;SDS011;26262;49.836;6.632;2023-05-07T12:30:47;2.13;;;1.00;;
39346;SDS011;26262;49.836;6.632;2023-05-07T12:33:18;2.03;;;0.90;;
39346;SDS011;26262;49.836;6.632;2023-05-07T12:35:48;2.17;;;0.98;;
39346;SDS011;26262;49.836;6.632;2023-05-07T12:38:16;2.28;;;1.10;;
39346;SDS011;26262;49.836;6.632;2023-05-07T12:40:43;1.50;;;0.90;;
39346;SDS011;26262;49.836;6.632;2023-05-07T12:45:43;2.50;;;1.00;;
39346;SDS011;26262;49.836;6.632;2023-05-07T12:48:09;1.85;;;0.80;;
39346;SDS011;26262;49.836;6.632;2023-05-07T12:50:36;3.13;;;1.15;;
39346;SDS011;26262;49.836;6.632;2023-05-07T12:53:05;1.65;;;1.00;;
39346;SDS011;26262;49.836;6.632;2023-05-07T12:55:32;3.42;;;1.23;;
39346;SDS011;26262;49.836;6.632;2023-05-07T12:58:14;1.55;;;1.00;;
39346;SDS011;26262;49.836;6.632;2023-05-07T13:00:44;2.00;;;0.88;;
39346;SDS011;26262;49.836;6.632;2023-05-07T13:03:12;1.20;;;0.93;;
39346;SDS011;26262;49.836;6.632;2023-05-07T13:05:50;2.20;;;0.90;;
39346;SDS011;26262;49.836;6.632;2023-05-07T13:08:23;3.33;;;1.08;;
39346;SDS011;26262;49.836;6.632;2023-05-07T13:10:56;1.52;;;1.00;;
39346;SDS011;26262;49.836;6.632;2023-05-07T13:13:23;3.22;;;0.98;;
39346;SDS011;26262;49.836;6.632;2023-05-07T13:15:48;1.58;;;0.70;;
39346;SDS011;26262;49.836;6.632;2023-05-07T13:18:14;1.38;;;0.82;;
39346;SDS011;26262;49.836;6.632;2023-05-07T13:20:40;1.88;;;1.20;;
39346;SDS011;26262;49.836;6.632;2023-05-07T13:23:05;2.90;;;1.10;;
39346;SDS011;26262;49.836;6.632;2023-05-07T13:25:31;1.55;;;1.17;;
39346;SDS011;26262;49.836;6.632;2023-05-07T13:27:57;1.17;;;1.02;;
39346;SDS011;26262;49.836;6.632;2023-05-07T13:30:22;1.52;;;1.05;;
39346;SDS011;26262;49.836;6.632;2023-05-07T13:32:48;1.45;;;0.93;;
39346;SDS011;26262;49.836;6.632;2023-05-07T13:35:15;3.63;;;1.17;;
39346;SDS011;26262;49.836;6.632;2023-05-07T13:37:41;2.63;;;1.20;;
39346;SDS011;26262;49.836;6.632;2023-05-07T13:40:07;1.73;;;1.00;;
39346;SDS011;26262;49.836;6.632;2023-05-07T13:42:33;2.28;;;1.40;;
39346;SDS011;26262;49.836;6.632;2023-05-07T13:44:58;3.85;;;1.17;;
39346;SDS011;26262;49.836;6.632;2023-05-07T13:47:24;2.42;;;1.20;;
39346;SDS011;26262;49.836;6.632;2023-05-07T13:49:49;2.45;;;1.23;;
39346;SDS011;26262;49.836;6.632;2023-05-07T13:52:15;2.03;;;1.00;;
39346;SDS011;26262;49.836;6.632;2023-05-07T13:54:41;2.47;;;1.10;;
39346;SDS011;26262;49.836;6.632;2023-05-07T13:57:07;1.15;;;0.95;;
39346;SDS011;26262;49.836;6.632;2023-05-07T13:59:33;2.45;;;1.20;;
39346;SDS011;26262;49.836;6.632;2023-05-07T14:01:58;2.08;;;1.20;;
39346;SDS011;26262;49.836;6.632;2023-05-07T14:04:24;1.65;;;1.00;;
39346;SDS011;26262;49.836;6.632;2023-05-07T14:06:50;3.25;;;1.60;;
39346;SDS011;26262;49.836;6.632;2023-05-07T14:09:15;2.63;;;1.10;;
39346;SDS011;26262;49.836;6.632;2023-05-07T14:11:41;3.03;;;1.40;;
39346;SDS011;26262;49.836;6.632;2023-05-07T14:14:07;3.10;;;1.25;;
39346;SDS011;26262;49.836;6.632;2023-05-07T14:16:32;3.10;;;1.20;;
39346;SDS011;26262;49.836;6.632;2023-05-07T14:18:58;2.45;;;1.77;;
39346;SDS011;26262;49.836;6.632;2023-05-07T14:21:23;2.33;;;1.45;;
39346;SDS011;26262;49.836;6.632;2023-05-07T14:23:49;2.72;;;1.20;;
39346;SDS011;26262;49.836;6.632;2023-05-07T14:26:15;2.10;;;1.10;;
39346;SDS011;26262;49.836;6.632;2023-05-07T14:28:40;2.85;;;1.17;;
39346;SDS011;26262;49.836;6.632;2023-05-07T14:31:10;1.55;;;1.10;;
39346;SDS011;26262;49.836;6.632;2023-05-07T14:33:36;2.17;;;1.10;;
39346;SDS011;26262;49.836;6.632;2023-05-07T14:36:02;3.38;;;1.17;;
39346;SDS011;26262;49.836;6.632;2023-05-07T14:38:28;2.20;;;1.00;;
39346;SDS011;26262;49.836;6.632;2023-05-07T14:40:55;4.50;;;1.47;;
39346;SDS011;26262;49.836;6.632;2023-05-07T14:43:21;1.95;;;1.40;;
39346;SDS011;26262;49.836;6.632;2023-05-07T14:45:47;2.10;;;1.25;;
39346;SDS011;26262;49.836;6.632;2023-05-07T14:48:12;2.70;;;1.08;;
39346;SDS011;26262;49.836;6.632;2023-05-07T14:53:08;2.22;;;1.13;;
39346;SDS011;26262;49.836;6.632;2023-05-07T14:55:34;1.58;;;1.10;;
39346;SDS011;26262;49.836;6.632;2023-05-07T14:58:00;2.78;;;1.17;;
39346;SDS011;26262;49.836;6.632;2023-05-07T15:00:25;2.75;;;1.00;;
39346;SDS011;26262;49.836;6.632;2023-05-07T15:02:51;1.73;;;1.30;;
39346;SDS011;26262;49.836;6.632;2023-05-07T15:05:17;1.95;;;1.40;;
39346;SDS011;26262;49.836;6.632;2023-05-07T15:07:44;1.45;;;1.02;;
39346;SDS011;26262;49.836;6.632;2023-05-07T15:10:09;2.45;;;1.13;;